Terminal Aerodrome Forecast
Issued by NWS Cleveland, OH

Home | Current Version | Previous Version | Graphics & Text | Print | Product List | Glossary On
Versions: 1 2 3 4 5 6 7 8 9 10 11 12 13 14 15 16 17
080
FTUS41 KCLE 201309 AAA
TAFCAK
TAF AMD
KCAK 201309Z 2013/2112 09008KT 6SM BR BKN008 OVC018
     FM201500 09008KT P6SM OVC018
     FM201800 09010KT P6SM BKN035
     FM210800 15010KT 6SM BR VCSH BKN028=

USA.gov is the U.S. government's official web portal to all federal, state and local government web resources and services.